sensor_id;sensor_type;location;lat;lon;timestamp;temperature;humidity
14577;DHT22;7375;46.072;14.470;2022-09-09T00:01:53;23.50;85.60
14577;DHT22;7375;46.072;14.470;2022-09-09T00:04:24;23.50;85.70
14577;DHT22;7375;46.072;14.470;2022-09-09T00:06:55;23.60;85.80
14577;DHT22;7375;46.072;14.470;2022-09-09T00:09:26;23.50;86.00
14577;DHT22;7375;46.072;14.470;2022-09-09T00:11:54;23.50;85.90
14577;DHT22;7375;46.072;14.470;2022-09-09T00:14:25;23.50;85.90
14577;DHT22;7375;46.072;14.470;2022-09-09T00:16:58;23.50;85.80
14577;DHT22;7375;46.072;14.470;2022-09-09T00:19:28;23.50;86.00
14577;DHT22;7375;46.072;14.470;2022-09-09T00:22:00;23.50;85.80
14577;DHT22;7375;46.072;14.470;2022-09-09T00:24:38;23.50;85.80
14577;DHT22;7375;46.072;14.470;2022-09-09T00:27:08;23.50;85.60
14577;DHT22;7375;46.072;14.470;2022-09-09T00:29:43;23.50;85.90
14577;DHT22;7375;46.072;14.470;2022-09-09T00:32:12;23.50;85.80
14577;DHT22;7375;46.072;14.470;2022-09-09T00:34:41;23.50;85.70
14577;DHT22;7375;46.072;14.470;2022-09-09T00:37:10;23.50;85.70
14577;DHT22;7375;46.072;14.470;2022-09-09T00:39:37;23.50;85.70
14577;DHT22;7375;46.072;14.470;2022-09-09T00:42:13;23.50;85.60
14577;DHT22;7375;46.072;14.470;2022-09-09T00:44:44;23.50;85.70
14577;DHT22;7375;46.072;14.470;2022-09-09T00:47:18;23.50;85.50
14577;DHT22;7375;46.072;14.470;2022-09-09T00:49:51;23.50;85.40
14577;DHT22;7375;46.072;14.470;2022-09-09T00:52:22;23.50;85.40
14577;DHT22;7375;46.072;14.470;2022-09-09T00:54:57;23.50;85.50
14577;DHT22;7375;46.072;14.470;2022-09-09T00:57:28;23.50;85.40
14577;DHT22;7375;46.072;14.470;2022-09-09T00:59:57;23.50;85.40
14577;DHT22;7375;46.072;14.470;2022-09-09T01:02:26;23.50;85.30
14577;DHT22;7375;46.072;14.470;2022-09-09T01:04:55;23.50;85.30
14577;DHT22;7375;46.072;14.470;2022-09-09T01:07:26;23.50;85.40
14577;DHT22;7375;46.072;14.470;2022-09-09T01:09:54;23.50;85.40
14577;DHT22;7375;46.072;14.470;2022-09-09T01:12:26;23.50;85.30
14577;DHT22;7375;46.072;14.470;2022-09-09T01:14:56;23.50;85.20
14577;DHT22;7375;46.072;14.470;2022-09-09T01:17:26;23.50;85.20
14577;DHT22;7375;46.072;14.470;2022-09-09T01:20:05;23.50;85.20
14577;DHT22;7375;46.072;14.470;2022-09-09T01:22:36;23.50;85.30
14577;DHT22;7375;46.072;14.470;2022-09-09T01:27:53;23.50;85.30
14577;DHT22;7375;46.072;14.470;2022-09-09T01:30:22;23.50;85.20
14577;DHT22;7375;46.072;14.470;2022-09-09T01:32:49;23.50;85.20
14577;DHT22;7375;46.072;14.470;2022-09-09T01:35:19;23.50;85.20
14577;DHT22;7375;46.072;14.470;2022-09-09T01:37:49;23.50;85.30
14577;DHT22;7375;46.072;14.470;2022-09-09T01:40:15;23.50;85.20
14577;DHT22;7375;46.072;14.470;2022-09-09T01:42:42;23.50;85.20
14577;DHT22;7375;46.072;14.470;2022-09-09T01:45:10;23.50;85.40
14577;DHT22;7375;46.072;14.470;2022-09-09T01:47:37;23.50;85.40
14577;DHT22;7375;46.072;14.470;2022-09-09T01:50:07;23.50;85.40
14577;DHT22;7375;46.072;14.470;2022-09-09T01:52:35;23.50;85.50
14577;DHT22;7375;46.072;14.470;2022-09-09T01:55:03;23.50;85.60
14577;DHT22;7375;46.072;14.470;2022-09-09T01:57:31;23.50;85.50
14577;DHT22;7375;46.072;14.470;2022-09-09T02:00:01;23.50;85.60
14577;DHT22;7375;46.072;14.470;2022-09-09T02:02:34;23.50;85.60
14577;DHT22;7375;46.072;14.470;2022-09-09T02:05:05;23.50;85.60
14577;DHT22;7375;46.072;14.470;2022-09-09T02:07:38;23.50;85.60
14577;DHT22;7375;46.072;14.470;2022-09-09T02:10:08;23.50;85.60
14577;DHT22;7375;46.072;14.470;2022-09-09T02:12:37;23.50;85.60
14577;DHT22;7375;46.072;14.470;2022-09-09T02:15:11;23.50;85.60
14577;DHT22;7375;46.072;14.470;2022-09-09T02:17:47;23.50;85.50
14577;DHT22;7375;46.072;14.470;2022-09-09T02:20:16;23.50;85.50
14577;DHT22;7375;46.072;14.470;2022-09-09T02:22:47;23.50;85.40
14577;DHT22;7375;46.072;14.470;2022-09-09T02:25:17;23.50;85.40
14577;DHT22;7375;46.072;14.470;2022-09-09T02:27:47;23.50;85.40
14577;DHT22;7375;46.072;14.470;2022-09-09T02:30:19;23.50;85.30
14577;DHT22;7375;46.072;14.470;2022-09-09T02:32:51;23.50;85.30
14577;DHT22;7375;46.072;14.470;2022-09-09T02:35:22;23.50;85.20
14577;DHT22;7375;46.072;14.470;2022-09-09T02:37:53;23.50;85.20
14577;DHT22;7375;46.072;14.470;2022-09-09T02:40:21;23.50;85.30
14577;DHT22;7375;46.072;14.470;2022-09-09T02:42:49;23.50;85.30
14577;DHT22;7375;46.072;14.470;2022-09-09T02:45:16;23.50;85.30
14577;DHT22;7375;46.072;14.470;2022-09-09T02:47:45;23.50;85.20
14577;DHT22;7375;46.072;14.470;2022-09-09T02:50:17;23.50;85.20
14577;DHT22;7375;46.072;14.470;2022-09-09T02:52:52;23.50;85.20
14577;DHT22;7375;46.072;14.470;2022-09-09T02:55:26;23.50;85.30
14577;DHT22;7375;46.072;14.470;2022-09-09T02:58:00;23.50;85.30
14577;DHT22;7375;46.072;14.470;2022-09-09T03:00:33;23.50;85.20
14577;DHT22;7375;46.072;14.470;2022-09-09T03:03:01;23.50;85.20
14577;DHT22;7375;46.072;14.470;2022-09-09T03:05:34;23.50;85.30
14577;DHT22;7375;46.072;14.470;2022-09-09T03:08:01;23.50;85.10
14577;DHT22;7375;46.072;14.470;2022-09-09T03:10:34;23.50;85.10
14577;DHT22;7375;46.072;14.470;2022-09-09T03:13:03;23.50;85.10
14577;DHT22;7375;46.072;14.470;2022-09-09T03:15:33;23.50;85.20
14577;DHT22;7375;46.072;14.470;2022-09-09T03:18:06;23.50;85.20
14577;DHT22;7375;46.072;14.470;2022-09-09T03:20:34;23.50;85.20
14577;DHT22;7375;46.072;14.470;2022-09-09T03:23:01;23.50;85.10
14577;DHT22;7375;46.072;14.470;2022-09-09T03:25:30;23.50;85.10
14577;DHT22;7375;46.072;14.470;2022-09-09T03:27:57;23.50;85.10
14577;DHT22;7375;46.072;14.470;2022-09-09T03:30:25;23.50;85.00
14577;DHT22;7375;46.072;14.470;2022-09-09T03:32:52;23.50;85.00
14577;DHT22;7375;46.072;14.470;2022-09-09T03:35:22;23.50;85.00
14577;DHT22;7375;46.072;14.470;2022-09-09T03:37:51;23.50;85.00
14577;DHT22;7375;46.072;14.470;2022-09-09T03:40:18;23.50;85.00
14577;DHT22;7375;46.072;14.470;2022-09-09T03:42:45;23.50;84.90
14577;DHT22;7375;46.072;14.470;2022-09-09T03:45:16;23.50;85.00
14577;DHT22;7375;46.072;14.470;2022-09-09T03:47:44;23.50;85.00
14577;DHT22;7375;46.072;14.470;2022-09-09T03:50:11;23.50;85.00
14577;DHT22;7375;46.072;14.470;2022-09-09T03:52:39;23.50;85.00
14577;DHT22;7375;46.072;14.470;2022-09-09T03:55:11;23.50;85.00
14577;DHT22;7375;46.072;14.470;2022-09-09T03:57:38;23.50;85.00
14577;DHT22;7375;46.072;14.470;2022-09-09T04:00:06;23.50;85.00
14577;DHT22;7375;46.072;14.470;2022-09-09T04:02:33;23.50;85.20
14577;DHT22;7375;46.072;14.470;2022-09-09T04:05:03;23.50;85.10
14577;DHT22;7375;46.072;14.470;2022-09-09T04:07:32;23.50;85.10
14577;DHT22;7375;46.072;14.470;2022-09-09T04:09:59;23.50;85.00
14577;DHT22;7375;46.072;14.470;2022-09-09T04:12:30;23.50;85.00
14577;DHT22;7375;46.072;14.470;2022-09-09T04:15:00;23.50;85.00
14577;DHT22;7375;46.072;14.470;2022-09-09T04:17:36;23.50;85.00
14577;DHT22;7375;46.072;14.470;2022-09-09T04:20:03;23.50;85.00
14577;DHT22;7375;46.072;14.470;2022-09-09T04:22:31;23.50;85.10
14577;DHT22;7375;46.072;14.470;2022-09-09T04:24:59;23.50;85.10
14577;DHT22;7375;46.072;14.470;2022-09-09T04:27:34;23.50;85.10
14577;DHT22;7375;46.072;14.470;2022-09-09T04:30:01;23.50;85.10
14577;DHT22;7375;46.072;14.470;2022-09-09T04:32:29;23.50;85.10
14577;DHT22;7375;46.072;14.470;2022-09-09T04:34:56;23.50;85.00
14577;DHT22;7375;46.072;14.470;2022-09-09T04:37:23;23.50;85.10
14577;DHT22;7375;46.072;14.470;2022-09-09T04:39:51;23.50;85.00
14577;DHT22;7375;46.072;14.470;2022-09-09T04:42:19;23.50;85.00
14577;DHT22;7375;46.072;14.470;2022-09-09T04:44:51;23.50;85.00
14577;DHT22;7375;46.072;14.470;2022-09-09T04:47:22;23.50;85.00
14577;DHT22;7375;46.072;14.470;2022-09-09T04:49:49;23.50;85.00
14577;DHT22;7375;46.072;14.470;2022-09-09T04:52:17;23.50;84.90
14577;DHT22;7375;46.072;14.470;2022-09-09T04:54:48;23.50;84.80
14577;DHT22;7375;46.072;14.470;2022-09-09T04:57:16;23.50;84.80
14577;DHT22;7375;46.072;14.470;2022-09-09T04:59:43;23.50;84.80
14577;DHT22;7375;46.072;14.470;2022-09-09T05:02:13;23.50;84.70
14577;DHT22;7375;46.072;14.470;2022-09-09T05:04:40;23.50;84.70
14577;DHT22;7375;46.072;14.470;2022-09-09T05:07:07;23.50;84.80
14577;DHT22;7375;46.072;14.470;2022-09-09T05:09:34;23.50;84.70
14577;DHT22;7375;46.072;14.470;2022-09-09T05:12:05;23.50;84.70
14577;DHT22;7375;46.072;14.470;2022-09-09T05:14:32;23.50;84.70
14577;DHT22;7375;46.072;14.470;2022-09-09T05:17:00;23.50;84.70
14577;DHT22;7375;46.072;14.470;2022-09-09T05:19:29;23.50;84.70
14577;DHT22;7375;46.072;14.470;2022-09-09T05:21:56;23.50;84.70
14577;DHT22;7375;46.072;14.470;2022-09-09T05:24:29;23.50;84.80
14577;DHT22;7375;46.072;14.470;2022-09-09T05:26:58;23.50;84.80
14577;DHT22;7375;46.072;14.470;2022-09-09T05:29:33;23.50;84.80
14577;DHT22;7375;46.072;14.470;2022-09-09T05:32:05;23.50;84.70
14577;DHT22;7375;46.072;14.470;2022-09-09T05:34:39;23.50;84.70
14577;DHT22;7375;46.072;14.470;2022-09-09T05:37:08;23.50;84.80
14577;DHT22;7375;46.072;14.470;2022-09-09T05:39:35;23.50;84.80
14577;DHT22;7375;46.072;14.470;2022-09-09T05:42:03;23.60;84.90
14577;DHT22;7375;46.072;14.470;2022-09-09T05:44:30;23.50;84.80
14577;DHT22;7375;46.072;14.470;2022-09-09T05:46:57;23.60;85.40
14577;DHT22;7375;46.072;14.470;2022-09-09T05:49:24;23.60;85.20
14577;DHT22;7375;46.072;14.470;2022-09-09T05:51:52;23.50;85.30
14577;DHT22;7375;46.072;14.470;2022-09-09T05:54:21;23.60;85.50
14577;DHT22;7375;46.072;14.470;2022-09-09T05:56:48;23.60;85.20
14577;DHT22;7375;46.072;14.470;2022-09-09T05:59:16;23.60;84.90
14577;DHT22;7375;46.072;14.470;2022-09-09T06:01:43;23.50;84.50
14577;DHT22;7375;46.072;14.470;2022-09-09T06:04:10;23.50;84.20
14577;DHT22;7375;46.072;14.470;2022-09-09T06:06:37;23.60;84.30
14577;DHT22;7375;46.072;14.470;2022-09-09T06:09:07;23.60;84.30
14577;DHT22;7375;46.072;14.470;2022-09-09T06:11:35;23.60;84.00
14577;DHT22;7375;46.072;14.470;2022-09-09T06:14:02;23.50;83.70
14577;DHT22;7375;46.072;14.470;2022-09-09T06:16:29;23.50;83.70
14577;DHT22;7375;46.072;14.470;2022-09-09T06:18:58;23.50;83.70
14577;DHT22;7375;46.072;14.470;2022-09-09T06:21:25;23.50;83.70
14577;DHT22;7375;46.072;14.470;2022-09-09T06:23:52;23.50;83.60
14577;DHT22;7375;46.072;14.470;2022-09-09T06:26:21;23.50;83.40
14577;DHT22;7375;46.072;14.470;2022-09-09T06:28:49;23.60;83.20
14577;DHT22;7375;46.072;14.470;2022-09-09T06:31:18;23.60;82.80
14577;DHT22;7375;46.072;14.470;2022-09-09T06:33:47;23.70;82.40
14577;DHT22;7375;46.072;14.470;2022-09-09T06:36:16;23.80;82.20
14577;DHT22;7375;46.072;14.470;2022-09-09T06:38:44;23.80;81.90
14577;DHT22;7375;46.072;14.470;2022-09-09T06:41:12;23.80;82.00
14577;DHT22;7375;46.072;14.470;2022-09-09T06:43:40;23.80;82.00
14577;DHT22;7375;46.072;14.470;2022-09-09T06:46:08;23.70;82.00
14577;DHT22;7375;46.072;14.470;2022-09-09T06:48:36;23.80;82.00
14577;DHT22;7375;46.072;14.470;2022-09-09T06:51:06;23.80;82.90
14577;DHT22;7375;46.072;14.470;2022-09-09T06:53:34;23.80;83.10
14577;DHT22;7375;46.072;14.470;2022-09-09T06:56:01;23.80;83.10
14577;DHT22;7375;46.072;14.470;2022-09-09T06:58:28;23.80;82.30
14577;DHT22;7375;46.072;14.470;2022-09-09T07:01:02;23.80;82.20
14577;DHT22;7375;46.072;14.470;2022-09-09T07:03:29;23.80;81.80
14577;DHT22;7375;46.072;14.470;2022-09-09T07:05:56;23.90;81.50
14577;DHT22;7375;46.072;14.470;2022-09-09T07:08:23;24.00;81.10
14577;DHT22;7375;46.072;14.470;2022-09-09T07:10:50;24.00;80.60
14577;DHT22;7375;46.072;14.470;2022-09-09T07:13:19;24.10;80.00
14577;DHT22;7375;46.072;14.470;2022-09-09T07:15:49;24.10;79.90
14577;DHT22;7375;46.072;14.470;2022-09-09T07:18:17;24.00;80.10
14577;DHT22;7375;46.072;14.470;2022-09-09T07:20:52;24.00;80.10
14577;DHT22;7375;46.072;14.470;2022-09-09T07:23:18;24.00;80.00
14577;DHT22;7375;46.072;14.470;2022-09-09T07:25:45;24.10;79.90
14577;DHT22;7375;46.072;14.470;2022-09-09T07:28:12;24.20;79.70
14577;DHT22;7375;46.072;14.470;2022-09-09T07:30:39;24.10;79.50
14577;DHT22;7375;46.072;14.470;2022-09-09T07:33:06;24.10;79.50
14577;DHT22;7375;46.072;14.470;2022-09-09T07:35:34;24.10;79.40
14577;DHT22;7375;46.072;14.470;2022-09-09T07:38:02;24.10;79.30
14577;DHT22;7375;46.072;14.470;2022-09-09T07:40:30;24.20;79.10
14577;DHT22;7375;46.072;14.470;2022-09-09T07:42:56;24.20;78.50
14577;DHT22;7375;46.072;14.470;2022-09-09T07:45:24;24.30;78.40
14577;DHT22;7375;46.072;14.470;2022-09-09T07:47:53;24.20;78.40
14577;DHT22;7375;46.072;14.470;2022-09-09T07:50:22;24.30;78.40
14577;DHT22;7375;46.072;14.470;2022-09-09T07:52:50;24.30;78.20
14577;DHT22;7375;46.072;14.470;2022-09-09T07:55:17;24.30;78.10
14577;DHT22;7375;46.072;14.470;2022-09-09T07:57:44;24.30;78.10
14577;DHT22;7375;46.072;14.470;2022-09-09T08:00:12;24.20;78.10
14577;DHT22;7375;46.072;14.470;2022-09-09T08:02:40;24.20;78.20
14577;DHT22;7375;46.072;14.470;2022-09-09T08:05:07;24.20;78.20
14577;DHT22;7375;46.072;14.470;2022-09-09T08:07:35;24.20;78.30
14577;DHT22;7375;46.072;14.470;2022-09-09T08:10:03;24.20;78.10
14577;DHT22;7375;46.072;14.470;2022-09-09T08:12:30;24.20;78.00
14577;DHT22;7375;46.072;14.470;2022-09-09T08:14:57;24.30;77.90
14577;DHT22;7375;46.072;14.470;2022-09-09T08:17:24;24.30;77.60
14577;DHT22;7375;46.072;14.470;2022-09-09T08:19:51;24.40;77.20
14577;DHT22;7375;46.072;14.470;2022-09-09T08:22:18;24.50;76.90
14577;DHT22;7375;46.072;14.470;2022-09-09T08:24:45;24.50;76.70
14577;DHT22;7375;46.072;14.470;2022-09-09T08:27:13;24.50;76.60
14577;DHT22;7375;46.072;14.470;2022-09-09T08:29:40;24.50;76.70
14577;DHT22;7375;46.072;14.470;2022-09-09T08:32:07;24.40;76.90
14577;DHT22;7375;46.072;14.470;2022-09-09T08:34:34;24.30;77.00
14577;DHT22;7375;46.072;14.470;2022-09-09T08:37:01;24.30;77.30
14577;DHT22;7375;46.072;14.470;2022-09-09T08:39:27;24.30;77.30
14577;DHT22;7375;46.072;14.470;2022-09-09T08:44:41;24.20;77.40
14577;DHT22;7375;46.072;14.470;2022-09-09T08:47:15;24.20;78.10
14577;DHT22;7375;46.072;14.470;2022-09-09T08:49:49;24.20;78.20
14577;DHT22;7375;46.072;14.470;2022-09-09T08:52:19;24.20;77.50
14577;DHT22;7375;46.072;14.470;2022-09-09T08:54:48;24.20;77.60
14577;DHT22;7375;46.072;14.470;2022-09-09T08:57:18;24.20;77.70
14577;DHT22;7375;46.072;14.470;2022-09-09T08:59:47;24.10;77.70
14577;DHT22;7375;46.072;14.470;2022-09-09T09:02:16;24.10;77.70
14577;DHT22;7375;46.072;14.470;2022-09-09T09:04:47;24.20;77.70
14577;DHT22;7375;46.072;14.470;2022-09-09T09:07:21;24.20;77.40
14577;DHT22;7375;46.072;14.470;2022-09-09T09:09:54;24.20;77.00
14577;DHT22;7375;46.072;14.470;2022-09-09T09:12:24;24.30;76.80
14577;DHT22;7375;46.072;14.470;2022-09-09T09:14:53;24.30;76.40
14577;DHT22;7375;46.072;14.470;2022-09-09T09:17:23;24.40;76.30
14577;DHT22;7375;46.072;14.470;2022-09-09T09:19:51;24.40;76.00
14577;DHT22;7375;46.072;14.470;2022-09-09T09:22:19;24.50;75.90
14577;DHT22;7375;46.072;14.470;2022-09-09T09:24:50;24.40;75.80
14577;DHT22;7375;46.072;14.470;2022-09-09T09:27:19;24.40;76.10
14577;DHT22;7375;46.072;14.470;2022-09-09T09:29:48;24.30;76.20
14577;DHT22;7375;46.072;14.470;2022-09-09T09:32:18;24.30;76.30
14577;DHT22;7375;46.072;14.470;2022-09-09T09:34:48;24.30;76.20
14577;DHT22;7375;46.072;14.470;2022-09-09T09:37:16;24.30;76.20
14577;DHT22;7375;46.072;14.470;2022-09-09T09:39:44;24.30;76.30
14577;DHT22;7375;46.072;14.470;2022-09-09T09:42:12;24.30;76.30
14577;DHT22;7375;46.072;14.470;2022-09-09T09:44:39;24.30;76.20
14577;DHT22;7375;46.072;14.470;2022-09-09T09:47:08;24.30;76.00
14577;DHT22;7375;46.072;14.470;2022-09-09T09:49:36;24.30;75.80
14577;DHT22;7375;46.072;14.470;2022-09-09T09:52:03;24.30;75.80
14577;DHT22;7375;46.072;14.470;2022-09-09T09:54:30;24.30;75.90
14577;DHT22;7375;46.072;14.470;2022-09-09T09:57:07;24.30;76.00
14577;DHT22;7375;46.072;14.470;2022-09-09T09:59:35;24.30;76.20
14577;DHT22;7375;46.072;14.470;2022-09-09T10:02:15;24.20;76.70
14577;DHT22;7375;46.072;14.470;2022-09-09T10:04:43;24.20;76.10
14577;DHT22;7375;46.072;14.470;2022-09-09T10:07:11;24.20;76.10
14577;DHT22;7375;46.072;14.470;2022-09-09T10:09:38;24.20;76.20
14577;DHT22;7375;46.072;14.470;2022-09-09T10:12:08;24.20;76.10
14577;DHT22;7375;46.072;14.470;2022-09-09T10:14:44;24.20;76.00
14577;DHT22;7375;46.072;14.470;2022-09-09T10:17:16;24.20;76.00
14577;DHT22;7375;46.072;14.470;2022-09-09T10:19:52;24.20;76.10
14577;DHT22;7375;46.072;14.470;2022-09-09T10:22:24;24.20;76.10
14577;DHT22;7375;46.072;14.470;2022-09-09T10:27:42;24.10;76.10
14577;DHT22;7375;46.072;14.470;2022-09-09T10:30:14;24.10;76.40
14577;DHT22;7375;46.072;14.470;2022-09-09T10:32:45;24.10;76.50
14577;DHT22;7375;46.072;14.470;2022-09-09T10:35:17;24.00;76.50
14577;DHT22;7375;46.072;14.470;2022-09-09T10:37:50;24.00;76.60
14577;DHT22;7375;46.072;14.470;2022-09-09T10:40:21;24.00;76.70
14577;DHT22;7375;46.072;14.470;2022-09-09T10:42:49;24.00;76.70
14577;DHT22;7375;46.072;14.470;2022-09-09T10:45:17;24.00;76.80
14577;DHT22;7375;46.072;14.470;2022-09-09T10:47:51;23.90;76.70
14577;DHT22;7375;46.072;14.470;2022-09-09T10:50:28;23.90;76.70
14577;DHT22;7375;46.072;14.470;2022-09-09T10:52:58;23.90;76.70
14577;DHT22;7375;46.072;14.470;2022-09-09T10:55:28;23.90;76.80
14577;DHT22;7375;46.072;14.470;2022-09-09T10:57:58;23.90;76.70
14577;DHT22;7375;46.072;14.470;2022-09-09T11:00:27;23.90;76.70
14577;DHT22;7375;46.072;14.470;2022-09-09T11:02:58;23.90;76.70
14577;DHT22;7375;46.072;14.470;2022-09-09T11:05:30;23.90;76.60
14577;DHT22;7375;46.072;14.470;2022-09-09T11:07:59;23.90;76.60
14577;DHT22;7375;46.072;14.470;2022-09-09T11:10:29;23.90;76.70
14577;DHT22;7375;46.072;14.470;2022-09-09T11:13:00;23.90;76.70
14577;DHT22;7375;46.072;14.470;2022-09-09T11:15:30;23.90;76.80
14577;DHT22;7375;46.072;14.470;2022-09-09T11:17:58;23.90;77.50
14577;DHT22;7375;46.072;14.470;2022-09-09T11:20:27;23.80;76.90
14577;DHT22;7375;46.072;14.470;2022-09-09T11:22:55;23.80;76.90
14577;DHT22;7375;46.072;14.470;2022-09-09T11:25:25;23.80;77.50
14577;DHT22;7375;46.072;14.470;2022-09-09T11:27:57;23.80;76.90
14577;DHT22;7375;46.072;14.470;2022-09-09T11:30:26;23.80;76.90
14577;DHT22;7375;46.072;14.470;2022-09-09T11:33:04;23.80;76.80
14577;DHT22;7375;46.072;14.470;2022-09-09T11:35:38;23.80;76.70
14577;DHT22;7375;46.072;14.470;2022-09-09T11:38:13;23.90;76.70
14577;DHT22;7375;46.072;14.470;2022-09-09T11:40:43;23.90;76.60
14577;DHT22;7375;46.072;14.470;2022-09-09T11:43:10;23.90;76.40
14577;DHT22;7375;46.072;14.470;2022-09-09T11:45:39;23.90;76.40
14577;DHT22;7375;46.072;14.470;2022-09-09T11:48:20;23.90;76.20
14577;DHT22;7375;46.072;14.470;2022-09-09T11:50:56;23.90;76.10
14577;DHT22;7375;46.072;14.470;2022-09-09T11:53:25;24.00;75.90
14577;DHT22;7375;46.072;14.470;2022-09-09T11:56:02;24.00;75.60
14577;DHT22;7375;46.072;14.470;2022-09-09T11:58:31;24.10;75.40
14577;DHT22;7375;46.072;14.470;2022-09-09T12:00:59;24.20;75.10
14577;DHT22;7375;46.072;14.470;2022-09-09T12:03:33;24.20;74.80
14577;DHT22;7375;46.072;14.470;2022-09-09T12:06:08;24.20;74.70
14577;DHT22;7375;46.072;14.470;2022-09-09T12:08:37;24.30;74.50
14577;DHT22;7375;46.072;14.470;2022-09-09T12:11:08;24.30;74.20
14577;DHT22;7375;46.072;14.470;2022-09-09T12:13:34;24.30;74.00
14577;DHT22;7375;46.072;14.470;2022-09-09T12:16:01;24.40;73.80
14577;DHT22;7375;46.072;14.470;2022-09-09T12:18:32;24.40;73.60
14577;DHT22;7375;46.072;14.470;2022-09-09T12:21:01;24.50;73.50
14577;DHT22;7375;46.072;14.470;2022-09-09T12:23:31;24.50;73.40
14577;DHT22;7375;46.072;14.470;2022-09-09T12:26:05;24.50;73.40
14577;DHT22;7375;46.072;14.470;2022-09-09T12:28:39;24.40;73.60
14577;DHT22;7375;46.072;14.470;2022-09-09T12:31:08;24.30;73.90
14577;DHT22;7375;46.072;14.470;2022-09-09T12:33:39;24.30;74.10
14577;DHT22;7375;46.072;14.470;2022-09-09T12:36:09;24.30;74.20
14577;DHT22;7375;46.072;14.470;2022-09-09T12:38:39;24.20;74.10
14577;DHT22;7375;46.072;14.470;2022-09-09T12:41:17;24.30;74.00
14577;DHT22;7375;46.072;14.470;2022-09-09T12:43:45;24.50;73.40
14577;DHT22;7375;46.072;14.470;2022-09-09T12:46:14;24.70;72.60
14577;DHT22;7375;46.072;14.470;2022-09-09T12:48:44;24.80;72.20
14577;DHT22;7375;46.072;14.470;2022-09-09T12:51:16;24.80;71.90
14577;DHT22;7375;46.072;14.470;2022-09-09T12:53:44;24.80;71.90
14577;DHT22;7375;46.072;14.470;2022-09-09T12:56:19;24.80;71.90
14577;DHT22;7375;46.072;14.470;2022-09-09T12:58:47;24.80;71.80
14577;DHT22;7375;46.072;14.470;2022-09-09T13:01:18;24.80;71.60
14577;DHT22;7375;46.072;14.470;2022-09-09T13:03:47;24.80;71.70
14577;DHT22;7375;46.072;14.470;2022-09-09T13:06:17;24.80;71.70
14577;DHT22;7375;46.072;14.470;2022-09-09T13:08:45;24.80;71.90
14577;DHT22;7375;46.072;14.470;2022-09-09T13:11:12;24.80;71.90
14577;DHT22;7375;46.072;14.470;2022-09-09T13:16:19;24.70;72.20
14577;DHT22;7375;46.072;14.470;2022-09-09T13:18:46;24.60;72.20
14577;DHT22;7375;46.072;14.470;2022-09-09T13:21:13;24.60;72.20
14577;DHT22;7375;46.072;14.470;2022-09-09T13:23:40;24.70;72.10
14577;DHT22;7375;46.072;14.470;2022-09-09T13:26:19;24.80;71.60
14577;DHT22;7375;46.072;14.470;2022-09-09T13:28:48;25.00;71.10
14577;DHT22;7375;46.072;14.470;2022-09-09T13:31:20;25.10;70.50
14577;DHT22;7375;46.072;14.470;2022-09-09T13:33:48;25.10;70.30
14577;DHT22;7375;46.072;14.470;2022-09-09T13:36:14;25.10;70.40
14577;DHT22;7375;46.072;14.470;2022-09-09T13:38:52;25.10;70.50
14577;DHT22;7375;46.072;14.470;2022-09-09T13:41:19;25.10;70.50
14577;DHT22;7375;46.072;14.470;2022-09-09T13:43:49;25.10;70.40
14577;DHT22;7375;46.072;14.470;2022-09-09T13:46:24;25.00;70.90
14577;DHT22;7375;46.072;14.470;2022-09-09T13:48:56;24.80;71.40
14577;DHT22;7375;46.072;14.470;2022-09-09T13:51:28;24.70;71.80
14577;DHT22;7375;46.072;14.470;2022-09-09T13:53:56;24.60;72.10
14577;DHT22;7375;46.072;14.470;2022-09-09T13:56:23;24.60;72.30
14577;DHT22;7375;46.072;14.470;2022-09-09T13:58:49;24.60;72.50
14577;DHT22;7375;46.072;14.470;2022-09-09T14:01:16;24.60;72.50
14577;DHT22;7375;46.072;14.470;2022-09-09T14:03:44;24.60;72.60
14577;DHT22;7375;46.072;14.470;2022-09-09T14:06:11;24.60;72.80
14577;DHT22;7375;46.072;14.470;2022-09-09T14:08:38;24.50;72.90
14577;DHT22;7375;46.072;14.470;2022-09-09T14:11:05;24.50;72.90
14577;DHT22;7375;46.072;14.470;2022-09-09T14:13:32;24.50;73.10
14577;DHT22;7375;46.072;14.470;2022-09-09T14:15:58;24.50;73.50
14577;DHT22;7375;46.072;14.470;2022-09-09T14:18:25;24.40;73.70
14577;DHT22;7375;46.072;14.470;2022-09-09T14:20:53;24.40;73.90
14577;DHT22;7375;46.072;14.470;2022-09-09T14:23:20;24.40;73.90
14577;DHT22;7375;46.072;14.470;2022-09-09T14:25:47;24.50;73.70
14577;DHT22;7375;46.072;14.470;2022-09-09T14:28:14;24.70;73.20
14577;DHT22;7375;46.072;14.470;2022-09-09T14:30:42;24.70;72.80
14577;DHT22;7375;46.072;14.470;2022-09-09T14:33:10;24.60;72.80
14577;DHT22;7375;46.072;14.470;2022-09-09T14:35:37;24.60;73.10
14577;DHT22;7375;46.072;14.470;2022-09-09T14:38:08;24.50;73.30
14577;DHT22;7375;46.072;14.470;2022-09-09T14:40:35;24.40;73.40
14577;DHT22;7375;46.072;14.470;2022-09-09T14:43:05;24.40;73.50
14577;DHT22;7375;46.072;14.470;2022-09-09T14:45:31;24.30;73.40
14577;DHT22;7375;46.072;14.470;2022-09-09T14:47:58;24.30;73.50
14577;DHT22;7375;46.072;14.470;2022-09-09T14:50:25;24.30;73.40
14577;DHT22;7375;46.072;14.470;2022-09-09T14:52:52;24.40;73.20
14577;DHT22;7375;46.072;14.470;2022-09-09T14:55:23;24.50;72.70
14577;DHT22;7375;46.072;14.470;2022-09-09T14:57:49;24.60;72.10
14577;DHT22;7375;46.072;14.470;2022-09-09T15:00:18;24.70;71.50
14577;DHT22;7375;46.072;14.470;2022-09-09T15:02:45;24.70;71.30
14577;DHT22;7375;46.072;14.470;2022-09-09T15:05:12;24.70;71.50
14577;DHT22;7375;46.072;14.470;2022-09-09T15:07:38;24.60;71.70
14577;DHT22;7375;46.072;14.470;2022-09-09T15:10:05;24.50;71.80
14577;DHT22;7375;46.072;14.470;2022-09-09T15:12:33;24.50;71.80
14577;DHT22;7375;46.072;14.470;2022-09-09T15:15:01;24.50;71.90
14577;DHT22;7375;46.072;14.470;2022-09-09T15:17:27;24.50;72.00
14577;DHT22;7375;46.072;14.470;2022-09-09T15:19:54;24.40;72.10
14577;DHT22;7375;46.072;14.470;2022-09-09T15:22:21;24.30;72.30
14577;DHT22;7375;46.072;14.470;2022-09-09T15:24:49;24.30;72.60
14577;DHT22;7375;46.072;14.470;2022-09-09T15:27:16;24.30;72.70
14577;DHT22;7375;46.072;14.470;2022-09-09T15:29:44;24.30;72.80
14577;DHT22;7375;46.072;14.470;2022-09-09T15:32:12;24.30;72.80
14577;DHT22;7375;46.072;14.470;2022-09-09T15:34:39;24.30;72.80
14577;DHT22;7375;46.072;14.470;2022-09-09T15:37:06;24.30;72.70
14577;DHT22;7375;46.072;14.470;2022-09-09T15:39:33;24.30;72.60
14577;DHT22;7375;46.072;14.470;2022-09-09T15:41:59;24.30;72.70
14577;DHT22;7375;46.072;14.470;2022-09-09T15:44:27;24.20;72.70
14577;DHT22;7375;46.072;14.470;2022-09-09T15:46:55;24.20;72.80
14577;DHT22;7375;46.072;14.470;2022-09-09T15:49:22;24.20;72.80
14577;DHT22;7375;46.072;14.470;2022-09-09T15:51:51;24.20;72.90
14577;DHT22;7375;46.072;14.470;2022-09-09T15:54:18;24.20;73.00